createdAt,value
2019-04-21T00:01:03.898Z,0.00
2019-04-21T00:02:01.170Z,0.00
2019-04-21T00:03:08.951Z,0.00
2019-04-21T00:04:16.206Z,0.00
2019-04-21T00:05:24.601Z,0.00
2019-04-21T00:06:22.359Z,0.00
2019-04-21T00:08:24.686Z,0.00
2019-04-21T00:09:31.254Z,0.00
2019-04-21T00:10:18.789Z,0.00
2019-04-21T00:11:22.413Z,0.00
2019-04-21T00:12:20.665Z,0.00
2019-04-21T00:13:12.432Z,0.00
2019-04-21T00:14:15.347Z,0.00
2019-04-21T00:15:12.182Z,0.00
2019-04-21T00:16:06.918Z,0.00
2019-04-21T00:17:07.935Z,0.00
2019-04-21T00:18:03.925Z,0.00
2019-04-21T00:19:10.336Z,0.00
2019-04-21T00:20:15.543Z,0.00
2019-04-21T00:22:11.672Z,0.00
2019-04-21T00:23:19.870Z,0.00
2019-04-21T00:24:16.296Z,0.00
2019-04-21T00:25:16.586Z,0.00
2019-04-21T00:26:16.385Z,0.00
2019-04-21T00:27:15.630Z,0.00
2019-04-21T00:28:24.112Z,0.00
2019-04-21T00:29:27.583Z,0.00
2019-04-21T00:30:22.749Z,0.00
2019-04-21T00:31:23.176Z,0.00
2019-04-21T00:32:13.592Z,0.00
2019-04-21T00:33:10.290Z,0.00
2019-04-21T00:34:02.231Z,0.00
2019-04-21T00:35:08.399Z,0.00
2019-04-21T00:36:10.215Z,0.00
2019-04-21T00:37:12.150Z,0.00
2019-04-21T00:38:24.987Z,0.00
2019-04-21T00:39:28.968Z,0.00
2019-04-21T00:40:25.635Z,0.00
2019-04-21T00:41:26.020Z,0.00
2019-04-21T00:42:19.937Z,0.00
2019-04-21T00:43:19.890Z,0.00
2019-04-21T00:44:14.264Z,0.00
2019-04-21T00:45:15.137Z,0.00
2019-04-21T00:46:12.356Z,0.00
2019-04-21T00:47:25.230Z,0.00
2019-04-21T00:48:26.580Z,0.00
2019-04-21T00:49:18.189Z,0.00
2019-04-21T00:51:33.309Z,0.00
2019-04-21T00:52:40.205Z,0.00
2019-04-21T00:53:29.637Z,0.00
2019-04-21T00:54:24.638Z,0.00
2019-04-21T00:56:30.701Z,0.00
2019-04-21T00:57:26.582Z,0.00
2019-04-21T00:58:28.670Z,0.00
2019-04-21T01:00:23.398Z,0.00
2019-04-21T01:02:24.891Z,0.00
2019-04-21T01:03:26.752Z,0.00
2019-04-21T01:06:25.050Z,0.00
2019-04-21T01:07:19.433Z,0.00
2019-04-21T01:08:22.679Z,0.00
2019-04-21T01:09:19.767Z,0.00
2019-04-21T01:10:16.212Z,0.00
2019-04-21T01:11:27.865Z,0.00
2019-04-21T01:12:28.261Z,0.00
2019-04-21T01:13:29.436Z,0.00
2019-04-21T01:14:29.868Z,0.00
2019-04-21T01:16:27.017Z,0.00
2019-04-21T01:17:21.817Z,0.00
2019-04-21T01:18:20.712Z,0.00
2019-04-21T01:19:20.928Z,0.00
2019-04-21T01:20:16.134Z,0.00
2019-04-21T01:21:13.662Z,0.00
2019-04-21T01:22:02.619Z,0.00
2019-04-21T01:23:02.705Z,0.00
2019-04-21T01:24:11.791Z,0.00
2019-04-21T01:25:11.883Z,0.00
2019-04-21T01:26:17.769Z,0.00
2019-04-21T01:27:13.656Z,0.00
2019-04-21T01:28:18.800Z,0.00
2019-04-21T01:29:22.682Z,0.00
2019-04-21T01:31:20.557Z,0.00
2019-04-21T01:32:24.230Z,0.00
2019-04-21T01:33:26.004Z,0.00
2019-04-21T01:34:20.530Z,0.00
2019-04-21T01:35:29.974Z,0.00
2019-04-21T01:37:21.202Z,0.00
2019-04-21T01:38:28.902Z,0.00
2019-04-21T01:40:32.073Z,0.00
2019-04-21T01:42:21.378Z,0.00
2019-04-21T01:43:24.987Z,0.00
2019-04-21T01:44:34.856Z,0.00
2019-04-21T01:45:22.473Z,0.00
2019-04-21T01:46:20.277Z,0.00
2019-04-21T01:47:23.162Z,0.00
2019-04-21T01:49:15.788Z,0.00
2019-04-21T01:50:23.736Z,0.00
2019-04-21T01:52:31.790Z,0.00
2019-04-21T01:53:30.715Z,0.00
2019-04-21T01:54:24.630Z,0.00
2019-04-21T01:55:25.169Z,0.00
2019-04-21T01:56:24.469Z,0.00
2019-04-21T01:57:26.291Z,0.00
2019-04-21T01:58:19.770Z,0.00
2019-04-21T01:59:12.768Z,0.00
2019-04-21T02:00:13.370Z,0.00
2019-04-21T02:01:26.237Z,0.00
2019-04-21T02:02:24.223Z,0.00
2019-04-21T02:03:41.647Z,0.00
2019-04-21T02:04:33.085Z,0.00
2019-04-21T02:05:28.397Z,0.00
2019-04-21T02:06:27.660Z,0.00
2019-04-21T02:07:27.044Z,0.00
2019-04-21T02:08:25.125Z,0.00
2019-04-21T02:09:19.149Z,0.00
2019-04-21T02:10:27.005Z,0.00
2019-04-21T02:11:30.020Z,0.00
2019-04-21T02:12:20.494Z,0.00
2019-04-21T02:13:21.657Z,0.00
2019-04-21T02:14:31.161Z,0.00
2019-04-21T02:15:29.702Z,0.00
2019-04-21T02:16:23.285Z,0.00
2019-04-21T02:17:26.491Z,0.00
2019-04-21T02:18:23.072Z,0.00
2019-04-21T02:19:28.470Z,0.00
2019-04-21T02:20:17.974Z,0.00
2019-04-21T02:21:21.722Z,0.00
2019-04-21T02:22:29.516Z,0.00
2019-04-21T02:23:34.540Z,0.00
2019-04-21T02:24:38.323Z,0.00
2019-04-21T02:25:26.059Z,0.00
2019-04-21T02:26:26.661Z,0.00
2019-04-21T02:27:23.410Z,0.00
2019-04-21T02:28:39.513Z,0.00
2019-04-21T02:29:27.465Z,0.00
2019-04-21T02:32:44.292Z,0.00
2019-04-21T02:34:40.950Z,0.00
2019-04-21T02:35:40.596Z,0.00
2019-04-21T02:38:39.784Z,0.00
2019-04-21T02:40:38.867Z,0.00
2019-04-21T02:41:43.441Z,0.00
2019-04-21T02:42:41.910Z,0.00
2019-04-21T02:43:39.193Z,0.00
2019-04-21T02:44:51.806Z,0.00
2019-04-21T02:48:38.255Z,0.00
2019-04-21T02:49:45.231Z,0.00
2019-04-21T02:54:48.034Z,0.00
2019-04-21T02:55:38.901Z,0.00
2019-04-21T02:58:41.970Z,0.00
2019-04-21T02:59:42.459Z,0.00
2019-04-21T03:03:37.955Z,0.00
2019-04-21T03:05:50.894Z,0.00
2019-04-21T03:06:40.328Z,0.00
2019-04-21T03:08:44.823Z,0.00
2019-04-21T03:10:49.120Z,0.00
2019-04-21T03:11:29.040Z,0.00
2019-04-21T03:12:34.542Z,0.00
2019-04-21T03:14:50.447Z,0.00
2019-04-21T03:15:43.128Z,0.00
2019-04-21T03:19:44.800Z,0.00
2019-04-21T03:21:38.820Z,0.00
2019-04-21T03:22:32.461Z,0.00
2019-04-21T03:23:53.523Z,0.00
2019-04-21T03:25:00.878Z,0.00
2019-04-21T03:26:54.385Z,0.00
2019-04-21T03:28:06.477Z,0.00
2019-04-21T03:29:38.531Z,0.00
2019-04-21T03:32:05.572Z,0.00
2019-04-21T03:33:09.530Z,0.00
2019-04-21T03:34:21.317Z,0.00
2019-04-21T03:36:57.079Z,0.00
2019-04-21T03:38:39.397Z,0.00
2019-04-21T03:40:33.171Z,0.00
2019-04-21T03:41:39.573Z,0.00
2019-04-21T03:43:43.795Z,0.00
2019-04-21T03:45:39.268Z,0.00
2019-04-21T03:46:41.348Z,0.00
2019-04-21T03:48:58.341Z,0.00
2019-04-21T03:50:33.752Z,0.00
2019-04-21T03:51:42.197Z,0.00
2019-04-21T03:54:45.090Z,0.00
2019-04-21T03:55:53.450Z,0.00
2019-04-21T03:59:38.948Z,0.00
2019-04-21T04:01:40.632Z,0.00
2019-04-21T04:02:46.560Z,0.00
2019-04-21T04:04:35.506Z,0.00
2019-04-21T04:05:48.153Z,0.00
2019-04-21T04:06:43.044Z,0.00
2019-04-21T04:08:57.801Z,0.00
2019-04-21T04:10:46.380Z,0.00
2019-04-21T04:11:51.360Z,0.00
2019-04-21T04:15:45.330Z,0.00
2019-04-21T04:17:40.446Z,0.00
2019-04-21T04:18:46.187Z,0.00
2019-04-21T04:19:40.013Z,0.00
2019-04-21T04:20:54.963Z,0.00
2019-04-21T04:22:50.770Z,0.00
2019-04-21T04:23:45.345Z,0.00
2019-04-21T04:24:44.761Z,0.00
2019-04-21T04:26:39.559Z,0.00
2019-04-21T04:28:49.920Z,0.00
2019-04-21T04:30:37.835Z,0.00
2019-04-21T04:34:49.871Z,0.00
2019-04-21T04:35:52.395Z,0.00
2019-04-21T04:37:03.459Z,0.00
2019-04-21T04:40:39.000Z,5.63
2019-04-21T04:41:41.663Z,5.63
2019-04-21T04:43:39.051Z,5.63
2019-04-21T04:46:43.883Z,5.63
2019-04-21T04:48:47.549Z,5.63
2019-04-21T04:49:48.138Z,5.63
2019-04-21T04:52:41.935Z,5.63
2019-04-21T04:55:43.308Z,11.25
2019-04-21T04:57:57.337Z,11.25
2019-04-21T04:58:59.482Z,11.25
2019-04-21T04:59:42.425Z,11.25
2019-04-21T05:02:08.547Z,11.25
2019-04-21T05:04:55.163Z,11.25
2019-04-21T05:05:36.222Z,11.25
2019-04-21T05:06:45.986Z,11.25
2019-04-21T05:07:52.089Z,11.25
2019-04-21T05:08:53.035Z,11.25
2019-04-21T05:09:39.386Z,16.88
2019-04-21T05:10:52.881Z,16.88
2019-04-21T05:12:35.800Z,16.88
2019-04-21T05:13:43.511Z,16.88
2019-04-21T05:14:39.005Z,16.88
2019-04-21T05:15:37.872Z,16.88
2019-04-21T05:17:50.895Z,16.88
2019-04-21T05:18:46.577Z,16.88
2019-04-21T05:20:30.598Z,16.88
2019-04-21T05:21:45.341Z,16.88
2019-04-21T05:23:31.634Z,16.88
2019-04-21T05:25:31.094Z,22.50
2019-04-21T05:26:21.473Z,22.50
2019-04-21T05:27:25.623Z,22.50
2019-04-21T05:28:24.440Z,22.50
2019-04-21T05:29:20.504Z,22.50
2019-04-21T05:30:33.984Z,22.50
2019-04-21T05:31:36.089Z,22.50
2019-04-21T05:33:32.140Z,22.50
2019-04-21T05:34:31.594Z,22.50
2019-04-21T05:35:36.799Z,22.50
2019-04-21T05:36:32.123Z,22.50
2019-04-21T05:37:28.543Z,22.50
2019-04-21T05:38:27.309Z,22.50
2019-04-21T05:39:28.316Z,22.50
2019-04-21T05:40:28.153Z,22.50
2019-04-21T05:41:20.754Z,22.50
2019-04-21T05:42:30.494Z,22.50
2019-04-21T05:43:32.617Z,28.13
2019-04-21T05:44:41.420Z,28.13
2019-04-21T05:46:32.240Z,28.13
2019-04-21T05:47:41.379Z,28.13
2019-04-21T05:48:37.733Z,28.13
2019-04-21T05:49:32.699Z,28.13
2019-04-21T05:50:27.771Z,28.13
2019-04-21T05:51:31.812Z,28.13
2019-04-21T05:52:29.820Z,28.13
2019-04-21T05:53:36.286Z,28.13
2019-04-21T05:54:39.028Z,28.13
2019-04-21T05:55:35.974Z,28.13
2019-04-21T05:56:39.533Z,28.13
2019-04-21T05:57:33.637Z,28.13
2019-04-21T05:58:32.933Z,28.13
2019-04-21T05:59:33.972Z,28.13
2019-04-21T06:00:54.920Z,28.13
2019-04-21T06:03:39.729Z,28.13
2019-04-21T06:04:51.814Z,28.13
2019-04-21T06:06:37.551Z,33.75
2019-04-21T06:07:34.843Z,33.75
2019-04-21T06:09:35.061Z,33.75
2019-04-21T06:10:38.516Z,33.75
2019-04-21T06:11:30.589Z,33.75
2019-04-21T06:12:35.980Z,33.75
2019-04-21T06:13:43.776Z,33.75
2019-04-21T06:14:42.191Z,33.75
2019-04-21T06:15:37.408Z,33.75
2019-04-21T06:16:40.336Z,33.75
2019-04-21T06:17:36.894Z,33.75
2019-04-21T06:18:44.869Z,33.75
2019-04-21T06:19:44.815Z,33.75
2019-04-21T06:20:35.375Z,33.75
2019-04-21T06:21:33.360Z,33.75
2019-04-21T06:22:33.054Z,33.75
2019-04-21T06:23:36.752Z,33.75
2019-04-21T06:24:45.785Z,33.75
2019-04-21T06:28:40.037Z,33.75
2019-04-21T06:29:36.206Z,33.75
2019-04-21T06:30:42.589Z,33.75
2019-04-21T06:32:05.585Z,33.75
2019-04-21T06:32:50.549Z,33.75
2019-04-21T06:33:50.654Z,33.75
2019-04-21T06:34:49.600Z,33.75
2019-04-21T06:35:57.047Z,33.75
2019-04-21T06:36:43.996Z,33.75
2019-04-21T06:37:47.081Z,33.75
2019-04-21T06:38:43.655Z,33.75
2019-04-21T06:39:42.681Z,33.75
2019-04-21T06:40:42.261Z,33.75
2019-04-21T06:41:35.425Z,33.75
2019-04-21T06:42:34.244Z,33.75
2019-04-21T06:43:41.946Z,33.75
2019-04-21T06:44:39.859Z,39.38
2019-04-21T06:45:42.079Z,39.38
2019-04-21T06:46:35.478Z,39.38
2019-04-21T06:48:41.181Z,39.38
2019-04-21T06:49:30.254Z,39.38
2019-04-21T06:50:42.904Z,39.38
2019-04-21T06:51:48.308Z,39.38
2019-04-21T06:52:52.184Z,39.38
2019-04-21T06:53:44.592Z,39.38
2019-04-21T06:54:42.263Z,39.38
2019-04-21T06:55:32.064Z,39.38
2019-04-21T06:56:41.938Z,39.38
2019-04-21T06:58:35.896Z,39.38
2019-04-21T06:59:34.212Z,39.38
2019-04-21T07:00:33.071Z,39.38
2019-04-21T07:01:36.000Z,39.38
2019-04-21T07:02:43.892Z,39.38
2019-04-21T07:03:34.850Z,39.38
2019-04-21T07:04:36.496Z,39.38
2019-04-21T07:05:41.367Z,39.38
2019-04-21T07:06:45.580Z,39.38
2019-04-21T07:07:35.199Z,39.38
2019-04-21T07:08:46.186Z,39.38
2019-04-21T07:09:36.489Z,39.38
2019-04-21T07:10:37.447Z,39.38
2019-04-21T07:11:30.262Z,39.38
2019-04-21T07:12:37.025Z,39.38
2019-04-21T07:13:32.220Z,39.38
2019-04-21T07:14:34.706Z,39.38
2019-04-21T07:15:37.403Z,39.38
2019-04-21T07:16:38.600Z,39.38
2019-04-21T07:17:32.531Z,39.38
2019-04-21T07:18:43.618Z,39.38
2019-04-21T07:19:40.923Z,39.38
2019-04-21T07:20:36.446Z,39.38
2019-04-21T07:21:43.034Z,39.38
2019-04-21T07:22:38.786Z,39.38
2019-04-21T07:23:39.992Z,39.38
2019-04-21T07:24:41.684Z,39.38
2019-04-21T07:26:36.803Z,39.38
2019-04-21T07:27:42.757Z,39.38
2019-04-21T07:28:41.722Z,39.38
2019-04-21T07:29:41.343Z,39.38
2019-04-21T07:30:37.169Z,39.38
2019-04-21T07:31:44.525Z,39.38
2019-04-21T07:32:33.643Z,39.38
2019-04-21T07:34:38.441Z,39.38
2019-04-21T07:35:40.966Z,39.38
2019-04-21T07:36:48.114Z,39.38
2019-04-21T07:37:35.094Z,39.38
2019-04-21T07:38:36.222Z,39.38
2019-04-21T07:39:33.970Z,39.38
2019-04-21T07:40:30.501Z,39.38
2019-04-21T07:41:31.133Z,39.38
2019-04-21T07:42:32.844Z,39.38
2019-04-21T07:43:33.130Z,39.38
2019-04-21T07:44:30.262Z,39.38
2019-04-21T07:45:31.932Z,39.38
2019-04-21T07:46:28.738Z,39.38
2019-04-21T07:47:34.654Z,39.38
2019-04-21T07:48:37.548Z,39.38
2019-04-21T07:49:41.493Z,39.38
2019-04-21T07:50:38.876Z,39.38
2019-04-21T07:51:37.806Z,39.38
2019-04-21T07:52:49.043Z,39.38
2019-04-21T07:53:42.348Z,39.38
2019-04-21T07:56:20.378Z,39.38
2019-04-21T07:57:31.584Z,39.38
2019-04-21T07:58:38.811Z,39.38
2019-04-21T07:59:55.149Z,39.38
2019-04-21T08:00:45.364Z,39.38
2019-04-21T08:01:37.060Z,39.38
2019-04-21T08:02:34.043Z,39.38
2019-04-21T08:03:35.474Z,39.38
2019-04-21T08:07:49.246Z,39.38
2019-04-21T08:08:33.406Z,39.38
2019-04-21T08:09:37.201Z,39.38
2019-04-21T08:10:36.325Z,39.38
2019-04-21T08:11:33.051Z,39.38
2019-04-21T08:12:29.904Z,39.38
2019-04-21T08:13:53.585Z,39.38
2019-04-21T08:14:35.280Z,39.38
2019-04-21T08:15:33.918Z,39.38
2019-04-21T08:16:37.245Z,39.38
2019-04-21T08:17:36.618Z,39.38
2019-04-21T08:18:39.531Z,45.00
2019-04-21T08:19:39.892Z,45.00
2019-04-21T08:20:34.990Z,45.00
2019-04-21T08:22:44.976Z,45.00
2019-04-21T08:23:39.945Z,45.00
2019-04-21T08:24:36.298Z,45.00
2019-04-21T08:25:40.246Z,45.00
2019-04-21T08:26:36.940Z,45.00
2019-04-21T08:27:41.682Z,45.00
2019-04-21T08:28:42.701Z,45.00
2019-04-21T08:29:39.421Z,45.00
2019-04-21T08:30:36.477Z,45.00
2019-04-21T08:31:48.586Z,45.00
2019-04-21T08:33:50.294Z,45.00
2019-04-21T08:34:59.499Z,45.00
2019-04-21T08:36:34.103Z,45.00
2019-04-21T08:37:38.068Z,45.00
2019-04-21T08:38:34.651Z,45.00
2019-04-21T08:40:57.542Z,45.00
2019-04-21T08:41:31.613Z,45.00
2019-04-21T08:42:39.995Z,45.00
2019-04-21T08:43:42.732Z,45.00
2019-04-21T08:44:40.635Z,45.00
2019-04-21T08:47:41.416Z,45.00
2019-04-21T08:48:34.983Z,45.00
2019-04-21T08:49:36.477Z,45.00
2019-04-21T08:50:41.510Z,45.00
2019-04-21T08:51:43.733Z,45.00
2019-04-21T08:52:47.305Z,45.00
2019-04-21T08:53:41.394Z,45.00
2019-04-21T08:54:40.931Z,45.00
2019-04-21T08:55:40.126Z,45.00
2019-04-21T08:57:42.075Z,45.00
2019-04-21T08:58:41.490Z,45.00
2019-04-21T08:59:36.380Z,45.00
2019-04-21T09:00:38.843Z,45.00
2019-04-21T09:01:38.326Z,45.00
2019-04-21T09:03:37.150Z,45.00
2019-04-21T09:04:34.764Z,45.00
2019-04-21T09:05:37.823Z,45.00
2019-04-21T09:06:54.299Z,45.00
2019-04-21T09:07:42.934Z,45.00
2019-04-21T09:08:39.357Z,45.00
2019-04-21T09:09:54.748Z,45.00
2019-04-21T09:10:35.662Z,45.00
2019-04-21T09:11:34.815Z,45.00
2019-04-21T09:12:34.768Z,45.00
2019-04-21T09:13:37.220Z,45.00
2019-04-21T09:14:36.459Z,45.00
2019-04-21T09:15:34.936Z,45.00
2019-04-21T09:16:30.735Z,45.00
2019-04-21T09:17:31.571Z,45.00
2019-04-21T09:18:37.435Z,45.00
2019-04-21T09:19:45.646Z,45.00
2019-04-21T09:20:46.142Z,45.00
2019-04-21T09:21:38.939Z,45.00
2019-04-21T09:22:35.837Z,45.00
2019-04-21T09:23:38.218Z,45.00
2019-04-21T09:24:33.127Z,45.00
2019-04-21T09:25:40.589Z,45.00
2019-04-21T09:26:35.366Z,45.00
2019-04-21T09:27:30.875Z,45.00
2019-04-21T09:28:32.705Z,45.00
2019-04-21T09:29:28.299Z,45.00
2019-04-21T09:30:19.786Z,45.00
2019-04-21T09:31:24.114Z,45.00
2019-04-21T09:32:25.036Z,45.00
2019-04-21T09:33:18.967Z,45.00
2019-04-21T09:34:24.974Z,45.00
2019-04-21T09:35:20.333Z,45.00
2019-04-21T09:36:22.127Z,45.00
2019-04-21T09:37:28.704Z,50.63
2019-04-21T09:38:27.577Z,50.63
2019-04-21T09:39:22.612Z,50.63
2019-04-21T09:40:27.470Z,50.63
2019-04-21T09:41:22.916Z,50.63
2019-04-21T09:42:20.165Z,50.63
2019-04-21T09:43:29.753Z,50.63
2019-04-21T09:44:25.448Z,50.63
2019-04-21T09:45:22.461Z,50.63
2019-04-21T09:46:19.209Z,50.63
2019-04-21T09:47:23.435Z,50.63
2019-04-21T09:48:22.185Z,50.63
2019-04-21T09:49:23.881Z,50.63
2019-04-21T09:50:19.866Z,50.63
2019-04-21T09:51:20.160Z,50.63
2019-04-21T09:52:25.404Z,50.63
2019-04-21T09:53:26.902Z,50.63
2019-04-21T09:54:24.794Z,50.63
2019-04-21T09:55:24.218Z,50.63
2019-04-21T09:56:31.563Z,50.63
2019-04-21T09:58:29.246Z,50.63
2019-04-21T09:59:26.214Z,50.63
2019-04-21T10:00:24.490Z,50.63
2019-04-21T10:01:28.801Z,50.63
2019-04-21T10:02:33.076Z,50.63
2019-04-21T10:03:21.234Z,50.63
2019-04-21T10:04:20.785Z,50.63
2019-04-21T10:05:19.775Z,50.63
2019-04-21T10:06:20.809Z,50.63
2019-04-21T10:07:27.500Z,50.63
2019-04-21T10:08:20.348Z,50.63
2019-04-21T10:09:21.671Z,50.63
2019-04-21T10:10:20.106Z,50.63
2019-04-21T10:12:20.087Z,50.63
2019-04-21T10:13:20.873Z,50.63
2019-04-21T10:14:20.085Z,50.63
2019-04-21T10:15:23.252Z,56.25
2019-04-21T10:16:20.148Z,56.25
2019-04-21T10:18:21.697Z,56.25
2019-04-21T10:21:38.582Z,56.25
2019-04-21T10:23:05.166Z,56.25
2019-04-21T10:24:06.357Z,56.25
2019-04-21T10:25:05.171Z,56.25
2019-04-21T10:26:06.355Z,56.25
2019-04-21T10:27:06.913Z,56.25
2019-04-21T10:28:05.512Z,56.25
2019-04-21T10:29:12.833Z,56.25
2019-04-21T10:30:05.735Z,56.25
2019-04-21T10:31:05.372Z,56.25
2019-04-21T10:32:05.830Z,56.25
2019-04-21T10:33:06.162Z,56.25
2019-04-21T10:34:05.572Z,56.25
2019-04-21T10:35:05.847Z,56.25
2019-04-21T10:36:06.860Z,56.25
2019-04-21T10:37:07.012Z,56.25
2019-04-21T10:38:16.958Z,56.25
2019-04-21T10:40:05.715Z,56.25
2019-04-21T10:41:05.819Z,56.25
2019-04-21T10:43:08.713Z,56.25
2019-04-21T10:44:07.139Z,56.25
2019-04-21T10:45:07.216Z,56.25
2019-04-21T10:46:06.599Z,56.25
2019-04-21T10:47:06.902Z,61.88
2019-04-21T10:49:06.441Z,61.88
2019-04-21T10:50:06.727Z,61.88
2019-04-21T10:51:07.098Z,61.88
2019-04-21T10:52:06.764Z,61.88
2019-04-21T10:53:07.018Z,61.88
2019-04-21T10:54:06.368Z,61.88
2019-04-21T10:55:23.058Z,61.88
2019-04-21T10:56:15.757Z,61.88
2019-04-21T10:57:06.714Z,61.88
2019-04-21T10:59:07.913Z,61.88
2019-04-21T11:00:09.122Z,61.88
2019-04-21T11:01:06.651Z,61.88
2019-04-21T11:02:07.249Z,61.88
2019-04-21T11:04:14.253Z,67.50
2019-04-21T11:05:06.974Z,67.50
2019-04-21T11:06:06.672Z,67.50
2019-04-21T11:07:12.346Z,67.50
2019-04-21T11:08:15.814Z,67.50
2019-04-21T11:09:07.288Z,67.50
2019-04-21T11:10:07.948Z,67.50
2019-04-21T11:12:08.260Z,67.50
2019-04-21T11:14:08.436Z,67.50
2019-04-21T11:15:07.297Z,67.50
2019-04-21T11:16:07.010Z,67.50
2019-04-21T11:17:07.967Z,67.50
2019-04-21T11:18:08.045Z,67.50
2019-04-21T11:19:07.115Z,67.50
2019-04-21T11:20:08.801Z,67.50
2019-04-21T11:21:07.240Z,67.50
2019-04-21T11:22:07.426Z,67.50
2019-04-21T11:23:08.028Z,67.50
2019-04-21T11:24:08.202Z,73.13
2019-04-21T11:25:07.283Z,73.13
2019-04-21T11:26:07.648Z,73.13
2019-04-21T11:27:08.724Z,73.13
2019-04-21T11:28:08.926Z,73.13
2019-04-21T11:29:07.534Z,73.13
2019-04-21T11:30:07.633Z,73.13
2019-04-21T11:31:08.916Z,73.13
2019-04-21T11:32:07.603Z,73.13
2019-04-21T11:33:09.061Z,73.13
2019-04-21T11:34:07.583Z,73.13
2019-04-21T11:35:07.785Z,73.13
2019-04-21T11:36:08.981Z,73.13
2019-04-21T11:37:08.151Z,73.13
2019-04-21T11:38:16.207Z,78.75
2019-04-21T11:40:12.292Z,78.75
2019-04-21T11:41:08.138Z,78.75
2019-04-21T11:42:07.936Z,78.75
2019-04-21T11:43:07.928Z,78.75
2019-04-21T11:44:07.996Z,78.75
2019-04-21T11:46:08.564Z,78.75
2019-04-21T11:47:08.188Z,78.75
2019-04-21T11:48:08.396Z,78.75
2019-04-21T11:49:08.432Z,78.75
2019-04-21T11:51:09.015Z,78.75
2019-04-21T11:52:09.187Z,84.38
2019-04-21T11:53:08.319Z,84.38
2019-04-21T11:54:08.737Z,84.38
2019-04-21T11:55:09.012Z,84.38
2019-04-21T11:56:09.040Z,84.38
2019-04-21T11:57:17.638Z,84.38
2019-04-21T11:58:09.842Z,84.38
2019-04-21T11:59:09.854Z,84.38
2019-04-21T12:00:09.368Z,84.38
2019-04-21T12:01:09.645Z,84.38
2019-04-21T12:02:09.764Z,84.38
2019-04-21T12:03:09.223Z,84.38
2019-04-21T12:05:09.757Z,84.38
2019-04-21T12:06:09.161Z,84.38
2019-04-21T12:07:09.222Z,84.38
2019-04-21T12:08:20.772Z,84.38
2019-04-21T12:09:10.097Z,90.00
2019-04-21T12:10:09.210Z,90.00
2019-04-21T12:12:09.586Z,90.00
2019-04-21T12:13:10.031Z,90.00
2019-04-21T12:14:09.986Z,90.00
2019-04-21T12:15:12.086Z,90.00
2019-04-21T12:16:09.071Z,90.00
2019-04-21T12:17:10.019Z,90.00
2019-04-21T12:18:10.050Z,90.00
2019-04-21T12:19:09.266Z,90.00
2019-04-21T12:20:10.523Z,90.00
2019-04-21T12:21:09.542Z,90.00
2019-04-21T12:22:18.138Z,90.00
2019-04-21T12:23:09.600Z,95.63
2019-04-21T12:24:09.364Z,95.63
2019-04-21T12:25:09.540Z,95.63
2019-04-21T12:27:09.810Z,95.63
2019-04-21T12:28:10.074Z,95.63
2019-04-21T12:31:09.692Z,95.63
2019-04-21T12:33:09.889Z,95.63
2019-04-21T12:34:09.909Z,95.63
2019-04-21T12:35:10.077Z,95.63
2019-04-21T12:36:11.485Z,101.25
2019-04-21T12:37:10.981Z,101.25
2019-04-21T12:38:13.078Z,101.25
2019-04-21T12:39:10.690Z,101.25
2019-04-21T12:40:10.504Z,106.88
2019-04-21T12:41:10.722Z,106.88
2019-04-21T12:42:10.357Z,106.88
2019-04-21T12:43:10.608Z,106.88
2019-04-21T12:44:10.813Z,106.88
2019-04-21T12:45:10.100Z,112.50
2019-04-21T12:46:10.254Z,112.50
2019-04-21T12:47:10.254Z,112.50
2019-04-21T12:48:10.601Z,118.13
2019-04-21T12:49:11.736Z,118.13
2019-04-21T12:50:10.909Z,118.13
2019-04-21T12:51:10.332Z,123.75
2019-04-21T12:52:11.453Z,123.75
2019-04-21T12:53:13.658Z,129.38
2019-04-21T12:54:11.991Z,135.00
2019-04-21T12:55:11.381Z,140.63
2019-04-21T12:56:11.797Z,146.25
2019-04-21T12:57:11.742Z,157.50
2019-04-21T12:58:11.075Z,191.25
2019-04-21T12:59:11.834Z,236.25
2019-04-21T13:00:11.247Z,264.38
2019-04-21T13:01:11.078Z,292.50
2019-04-21T13:02:11.720Z,315.00
2019-04-21T13:03:11.926Z,309.38
2019-04-21T13:04:10.803Z,331.88
2019-04-21T13:05:11.673Z,399.38
2019-04-21T13:06:11.722Z,421.88
2019-04-21T13:07:11.058Z,438.75
2019-04-21T13:08:11.516Z,427.50
2019-04-21T13:10:11.043Z,472.50
2019-04-21T13:11:13.056Z,489.38
2019-04-21T13:12:11.231Z,500.63
2019-04-21T13:13:12.156Z,523.13
2019-04-21T13:14:11.614Z,545.63
2019-04-21T13:15:11.535Z,601.88
2019-04-21T13:16:11.639Z,596.25
2019-04-21T13:17:11.281Z,568.13
2019-04-21T13:18:12.396Z,568.13
2019-04-21T13:20:11.655Z,596.25
2019-04-21T13:21:12.074Z,630.00
2019-04-21T13:22:12.277Z,680.63
2019-04-21T13:23:12.231Z,691.88
2019-04-21T13:24:11.817Z,686.25
2019-04-21T13:25:11.925Z,708.75
2019-04-21T13:26:12.953Z,725.63
2019-04-21T13:27:12.777Z,748.13
2019-04-21T13:28:12.543Z,736.88
2019-04-21T13:29:12.280Z,748.13
2019-04-21T13:30:12.648Z,781.88
2019-04-21T13:31:12.101Z,815.63
2019-04-21T13:32:12.570Z,793.13
2019-04-21T13:33:13.208Z,798.75
2019-04-21T13:34:11.927Z,826.88
2019-04-21T13:36:12.026Z,838.13
2019-04-21T13:37:12.399Z,905.63
2019-04-21T13:38:20.040Z,888.75
2019-04-21T13:39:37.967Z,894.38
2019-04-21T13:40:29.358Z,905.63
2019-04-21T13:41:21.429Z,945.00
2019-04-21T13:42:23.644Z,973.13
2019-04-21T13:43:12.575Z,990.00
2019-04-21T13:44:13.323Z,1006.88
2019-04-21T13:45:14.044Z,1040.63
2019-04-21T13:46:12.405Z,1012.50
2019-04-21T13:47:12.599Z,973.13
2019-04-21T13:48:12.836Z,984.38
2019-04-21T13:50:13.308Z,1035.00
2019-04-21T13:51:13.335Z,1108.13
2019-04-21T13:52:13.013Z,1164.38
2019-04-21T13:53:12.776Z,1102.50
2019-04-21T13:54:14.003Z,1080.00
2019-04-21T13:55:13.892Z,1147.50
2019-04-21T13:56:14.209Z,1125.00
2019-04-21T13:57:14.315Z,1102.50
2019-04-21T13:58:14.589Z,1080.00
2019-04-21T13:59:14.089Z,1096.88
2019-04-21T14:00:13.305Z,1130.63
2019-04-21T14:01:13.819Z,1170.00
2019-04-21T14:02:13.142Z,1215.00
2019-04-21T14:03:14.570Z,1113.75
2019-04-21T14:04:13.737Z,1040.63
2019-04-21T14:05:15.582Z,1068.75
2019-04-21T14:06:14.118Z,1113.75
2019-04-21T14:07:14.329Z,1119.38
2019-04-21T14:08:13.534Z,1108.13
2019-04-21T14:09:13.863Z,1147.50
2019-04-21T14:10:14.260Z,1215.00
2019-04-21T14:11:13.497Z,1181.25
2019-04-21T14:12:13.862Z,1209.38
2019-04-21T14:13:14.355Z,1153.13
2019-04-21T14:14:14.449Z,1136.25
2019-04-21T14:15:14.617Z,1203.75
2019-04-21T14:16:14.065Z,1175.63
2019-04-21T14:17:14.995Z,1215.00
2019-04-21T14:18:14.938Z,1226.25
2019-04-21T14:19:15.327Z,1248.75
2019-04-21T14:20:15.218Z,1215.00
2019-04-21T14:21:13.905Z,1141.88
2019-04-21T14:22:14.114Z,1119.38
2019-04-21T14:23:24.296Z,1158.75
2019-04-21T14:24:14.929Z,1141.88
2019-04-21T14:25:15.308Z,1136.25
2019-04-21T14:26:14.393Z,1170.00
2019-04-21T14:27:14.427Z,1164.38
2019-04-21T14:28:15.500Z,1113.75
2019-04-21T14:29:15.485Z,1096.88
2019-04-21T14:30:14.502Z,1164.38
2019-04-21T14:31:14.522Z,1198.13
2019-04-21T14:32:14.348Z,1203.75
2019-04-21T14:33:16.064Z,1153.13
2019-04-21T14:34:14.464Z,1096.88
2019-04-21T14:35:14.799Z,1102.50
2019-04-21T14:37:14.849Z,1102.50
2019-04-21T14:38:14.586Z,1096.88
2019-04-21T14:39:16.569Z,1063.13
2019-04-21T14:40:20.489Z,1051.88
2019-04-21T14:41:14.760Z,1096.88
2019-04-21T14:42:16.014Z,1057.50
2019-04-21T14:43:16.333Z,1040.63
2019-04-21T14:44:15.276Z,1091.25
2019-04-21T14:45:16.732Z,1136.25
2019-04-21T14:46:15.231Z,1091.25
2019-04-21T14:47:15.420Z,1068.75
2019-04-21T14:48:15.035Z,1119.38
2019-04-21T14:49:15.237Z,1057.50
2019-04-21T14:50:15.519Z,1023.75
2019-04-21T14:51:16.881Z,1085.63
2019-04-21T14:52:15.201Z,1102.50
2019-04-21T14:53:16.042Z,1080.00
2019-04-21T14:54:15.303Z,1068.75
2019-04-21T14:55:16.656Z,1085.63
2019-04-21T14:56:17.381Z,1046.25
2019-04-21T14:57:15.897Z,1029.38
2019-04-21T14:58:17.098Z,1029.38
2019-04-21T14:59:15.502Z,995.63
2019-04-21T15:00:15.817Z,990.00
2019-04-21T15:02:16.073Z,984.38
2019-04-21T15:03:16.095Z,984.38
2019-04-21T15:04:17.186Z,984.38
2019-04-21T15:05:17.463Z,995.63
2019-04-21T15:06:16.089Z,995.63
2019-04-21T15:07:17.086Z,995.63
2019-04-21T15:08:17.210Z,1040.63
2019-04-21T15:09:16.091Z,1074.38
2019-04-21T15:10:20.828Z,1119.38
2019-04-21T15:11:16.389Z,1074.38
2019-04-21T15:12:16.415Z,1063.13
2019-04-21T15:13:17.373Z,1051.88
2019-04-21T15:14:17.763Z,1006.88
2019-04-21T15:15:16.399Z,1012.50
2019-04-21T15:16:16.217Z,995.63
2019-04-21T15:17:19.515Z,990.00
2019-04-21T15:18:16.850Z,1029.38